Terminal Aerodrome Forecast
Issued by NWS

Home | Current Version | Previous Version | Text Only | Print | Product List | Glossary Off
Versions: 1 2 3 4 5 6 7 8 9 10 11 12 13 14

767
FTUS42 KMHX 081735
TAFPGV
TAF
KPGV 081735Z 0818/0918 VRB05KT P6SM SCT060
     FM090100 23005KT P6SM VCSH BKN050
     FM090500 26004KT P6SM SCT030
     FM091300 27010G17KT P6SM SCT050
      AMD LTD TO CLD VIS AND WIND=

USA.gov is the U.S. government's official web portal to all federal, state and local government web resources and services.